createdAt,value
2022-10-17T00:02:05.048Z,99201.34
2022-10-17T00:04:31.680Z,99204.19
2022-10-17T00:06:58.310Z,99201.22
2022-10-17T00:09:24.975Z,99199.09
2022-10-17T00:11:51.586Z,99202.88
2022-10-17T00:14:18.206Z,99210.78
2022-10-17T00:16:44.801Z,99206.56
2022-10-17T00:19:11.793Z,99215.00
2022-10-17T00:21:38.491Z,99216.25
2022-10-17T00:24:05.643Z,99216.09
2022-10-17T00:26:32.626Z,99216.72
2022-10-17T00:28:59.306Z,99217.56
2022-10-17T00:31:26.021Z,99225.34
2022-10-17T00:33:53.309Z,99230.72
2022-10-17T00:36:26.288Z,99225.81
2022-10-17T00:38:58.753Z,99221.88
2022-10-17T00:41:30.566Z,99227.72
2022-10-17T00:44:04.091Z,99230.72
2022-10-17T00:46:39.175Z,99226.38
2022-10-17T00:49:10.451Z,99233.53
2022-10-17T00:51:54.639Z,99227.66
2022-10-17T00:54:27.569Z,99235.50
2022-10-17T00:56:55.040Z,99235.81
2022-10-17T00:59:22.993Z,99242.16
2022-10-17T01:02:10.993Z,99242.50
2022-10-17T01:04:41.642Z,99241.41
2022-10-17T01:07:09.242Z,99240.28
2022-10-17T01:09:36.554Z,99229.34
2022-10-17T01:12:27.390Z,99232.97
2022-10-17T01:15:19.091Z,99232.81
2022-10-17T01:18:13.929Z,99236.41
2022-10-17T01:21:29.167Z,99236.13
2022-10-17T01:24:15.598Z,99228.03
2022-10-17T01:27:18.383Z,99237.50
2022-10-17T01:30:09.846Z,99239.31
2022-10-17T01:32:55.178Z,99236.88
2022-10-17T01:36:08.966Z,99233.56
2022-10-17T01:38:47.322Z,99240.47
2022-10-17T01:41:27.709Z,99238.34
2022-10-17T01:44:10.061Z,99238.16
2022-10-17T01:46:40.230Z,99243.41
2022-10-17T01:49:10.158Z,99237.28
2022-10-17T01:51:54.261Z,99242.25
2022-10-17T01:54:42.741Z,99245.44
2022-10-17T01:57:23.292Z,99237.72
2022-10-17T01:59:53.241Z,99234.81
2022-10-17T02:02:24.654Z,99231.59
2022-10-17T02:04:53.318Z,99228.69
2022-10-17T02:07:20.095Z,99225.69
2022-10-17T02:09:46.718Z,99226.91
2022-10-17T02:12:51.883Z,99231.69
2022-10-17T02:15:54.248Z,99228.69
2022-10-17T02:19:01.008Z,99225.50
2022-10-17T02:21:46.262Z,99232.69
2022-10-17T02:24:35.908Z,99224.63
2022-10-17T02:27:12.330Z,99226.22
2022-10-17T02:29:48.927Z,99223.28
2022-10-17T02:32:24.971Z,99228.94
2022-10-17T02:34:55.694Z,99224.81
2022-10-17T02:37:31.665Z,99230.91
2022-10-17T02:40:00.486Z,99224.94
2022-10-17T02:42:28.874Z,99221.72
2022-10-17T02:45:01.008Z,99224.63
2022-10-17T02:47:54.205Z,99243.53
2022-10-17T02:53:12.786Z,99237.53
2022-10-17T02:55:47.702Z,99243.06
2022-10-17T02:58:21.740Z,99240.00
2022-10-17T03:00:49.103Z,99239.53
2022-10-17T03:03:26.390Z,99235.00
2022-10-17T03:05:54.046Z,99240.53
2022-10-17T03:08:21.931Z,99241.78
2022-10-17T03:10:48.830Z,99239.25
2022-10-17T03:13:16.618Z,99233.81
2022-10-17T03:15:43.338Z,99238.66
2022-10-17T03:18:10.016Z,99244.19
2022-10-17T03:20:36.960Z,99240.09
2022-10-17T03:23:03.586Z,99241.16
2022-10-17T03:25:30.223Z,99229.78
2022-10-17T03:28:00.362Z,99240.00
2022-10-17T03:30:29.130Z,99235.53
2022-10-17T03:32:58.446Z,99230.06
2022-10-17T03:35:26.690Z,99249.00
2022-10-17T03:37:55.634Z,99257.06
2022-10-17T03:40:22.383Z,99256.88
2022-10-17T03:42:48.986Z,99258.44
2022-10-17T03:45:15.639Z,99258.44
2022-10-17T03:47:42.175Z,99272.31
2022-10-17T03:50:09.183Z,99267.47
2022-10-17T03:52:35.819Z,99271.41
2022-10-17T03:55:02.439Z,99267.13
2022-10-17T03:57:29.237Z,99262.47
2022-10-17T03:59:55.995Z,99267.97
2022-10-17T04:02:22.635Z,99270.13
2022-10-17T04:04:49.252Z,99276.19
2022-10-17T04:07:15.914Z,99278.59
2022-10-17T04:09:42.566Z,99280.03
2022-10-17T04:12:09.320Z,99282.84
2022-10-17T04:14:37.673Z,99286.38
2022-10-17T04:17:04.975Z,99281.69
2022-10-17T04:19:31.807Z,99289.28
2022-10-17T04:21:58.565Z,99298.09
2022-10-17T04:24:25.759Z,99287.47
2022-10-17T04:26:52.843Z,99292.97
2022-10-17T04:29:19.458Z,99287.19
2022-10-17T04:31:46.139Z,99286.88
2022-10-17T04:34:14.109Z,99285.03
2022-10-17T04:36:40.980Z,99276.16
2022-10-17T04:39:07.680Z,99258.47
2022-10-17T04:41:34.331Z,99264.91
2022-10-17T04:44:00.896Z,99273.69
2022-10-17T04:46:27.515Z,99272.53
2022-10-17T04:48:54.257Z,99289.75
2022-10-17T04:51:23.311Z,99297.56
2022-10-17T04:53:52.595Z,99303.19
2022-10-17T04:56:22.319Z,99309.72
2022-10-17T04:58:49.820Z,99302.03
2022-10-17T05:01:20.360Z,99305.63
2022-10-17T05:03:48.032Z,99302.28
2022-10-17T05:06:21.567Z,99308.31
2022-10-17T05:08:48.606Z,99314.84
2022-10-17T05:11:26.423Z,99311.34
2022-10-17T05:14:00.680Z,99312.41
2022-10-17T05:16:28.722Z,99312.88
2022-10-17T05:18:57.663Z,99308.38
2022-10-17T05:21:26.673Z,99303.28
2022-10-17T05:23:53.971Z,99300.63
2022-10-17T05:26:21.871Z,99292.19
2022-10-17T05:28:48.525Z,99285.91
2022-10-17T05:31:15.395Z,99282.59
2022-10-17T05:33:42.124Z,99298.16
2022-10-17T05:36:09.112Z,99308.78
2022-10-17T05:38:35.996Z,99317.09
2022-10-17T05:41:05.169Z,99315.19
2022-10-17T05:43:33.592Z,99319.81
2022-10-17T05:46:04.856Z,99319.69
2022-10-17T05:48:31.683Z,99324.56
2022-10-17T05:51:08.973Z,99318.28
2022-10-17T05:53:41.420Z,99319.69
2022-10-17T05:56:11.868Z,99320.88
2022-10-17T05:58:55.062Z,99321.50
2022-10-17T06:01:24.213Z,99322.13
2022-10-17T06:03:50.862Z,99329.50
2022-10-17T06:06:18.581Z,99328.41
2022-10-17T06:08:45.663Z,99327.19
2022-10-17T06:11:13.474Z,99338.91
2022-10-17T06:13:40.407Z,99337.41
2022-10-17T06:16:07.375Z,99338.91
2022-10-17T06:18:33.958Z,99350.63
2022-10-17T06:21:12.365Z,99350.63
2022-10-17T06:23:38.949Z,99351.69
2022-10-17T06:26:07.509Z,99368.97
2022-10-17T06:28:39.405Z,99363.22
2022-10-17T06:31:12.032Z,99361.59
2022-10-17T06:33:39.094Z,99367.47
2022-10-17T06:36:07.815Z,99363.41
2022-10-17T06:38:35.309Z,99381.28
2022-10-17T06:41:14.567Z,99370.16
2022-10-17T06:43:48.626Z,99377.38
2022-10-17T06:46:17.452Z,99374.03
2022-10-17T06:48:44.827Z,99380.38
2022-10-17T06:51:11.774Z,99378.25
2022-10-17T06:53:40.355Z,99390.56
2022-10-17T06:56:09.575Z,99390.25
2022-10-17T06:58:39.563Z,99399.53
2022-10-17T07:01:12.793Z,99398.19
2022-10-17T07:03:41.125Z,99388.94
2022-10-17T07:06:11.154Z,99394.09
2022-10-17T07:08:38.055Z,99399.47
2022-10-17T07:11:16.974Z,99395.38
2022-10-17T07:13:43.945Z,99401.09
2022-10-17T07:16:12.097Z,99396.78
2022-10-17T07:18:40.083Z,99401.31
2022-10-17T07:21:08.459Z,99405.03
2022-10-17T07:23:36.938Z,99401.78
2022-10-17T07:26:08.229Z,99409.94
2022-10-17T07:28:38.000Z,99409.06
2022-10-17T07:31:14.935Z,99413.25
2022-10-17T07:33:43.021Z,99421.91
2022-10-17T07:36:10.059Z,99417.78
2022-10-17T07:38:37.213Z,99419.00
2022-10-17T07:41:07.349Z,99422.84
2022-10-17T07:43:36.034Z,99412.66
2022-10-17T07:46:04.411Z,99416.06
2022-10-17T07:48:31.586Z,99407.22
2022-10-17T07:50:58.234Z,99417.56
2022-10-17T07:53:25.010Z,99418.56
2022-10-17T07:55:52.014Z,99417.16
2022-10-17T07:58:18.670Z,99407.59
2022-10-17T08:00:48.299Z,99414.00
2022-10-17T08:03:15.267Z,99423.78
2022-10-17T08:05:42.074Z,99425.38
2022-10-17T08:08:08.681Z,99432.25
2022-10-17T08:10:35.345Z,99432.38
2022-10-17T08:13:02.534Z,99435.22
2022-10-17T08:15:31.786Z,99439.81
2022-10-17T08:17:59.485Z,99436.94
2022-10-17T08:20:26.352Z,99428.34
2022-10-17T08:22:54.464Z,99424.41
2022-10-17T08:25:21.797Z,99427.03
2022-10-17T08:27:49.057Z,99433.16
2022-10-17T08:30:16.261Z,99435.00
2022-10-17T08:32:43.249Z,99450.72
2022-10-17T08:35:10.253Z,99436.09
2022-10-17T08:37:38.266Z,99434.16
2022-10-17T08:40:05.968Z,99429.72
2022-10-17T08:43:13.652Z,99419.47
2022-10-17T08:45:51.590Z,99420.38
2022-10-17T08:48:23.980Z,99419.78
2022-10-17T08:50:59.362Z,99417.53
2022-10-17T08:53:29.744Z,99423.88
2022-10-17T08:55:58.887Z,99413.09
2022-10-17T08:58:31.380Z,99412.34
2022-10-17T09:01:19.539Z,99410.22
2022-10-17T09:04:37.766Z,99415.47
2022-10-17T09:07:27.258Z,99408.22
2022-10-17T09:10:04.216Z,99419.75
2022-10-17T09:12:52.337Z,99421.78
2022-10-17T09:15:41.576Z,99434.72
2022-10-17T09:18:33.207Z,99430.25
2022-10-17T09:21:40.152Z,99428.97
2022-10-17T09:24:18.734Z,99432.88
2022-10-17T09:26:46.860Z,99431.09
2022-10-17T09:29:23.134Z,99435.09
2022-10-17T09:32:03.988Z,99442.06
2022-10-17T09:34:32.463Z,99445.97
2022-10-17T09:37:01.369Z,99454.28
2022-10-17T09:39:32.882Z,99445.97
2022-10-17T09:42:01.660Z,99447.91
2022-10-17T09:44:42.633Z,99442.28
2022-10-17T09:47:35.247Z,99441.06
2022-10-17T09:50:02.185Z,99454.28
2022-10-17T09:52:35.603Z,99472.19
2022-10-17T09:55:15.934Z,99458.78
2022-10-17T09:58:03.907Z,99451.88
2022-10-17T10:01:19.641Z,99455.78
2022-10-17T10:04:14.742Z,99463.00
2022-10-17T10:07:01.926Z,99457.19
2022-10-17T10:09:33.992Z,99462.94
2022-10-17T10:12:14.583Z,99477.63
2022-10-17T10:14:42.727Z,99470.91
2022-10-17T10:17:35.700Z,99478.19
2022-10-17T10:20:24.572Z,99486.88
2022-10-17T10:23:17.158Z,99486.03
2022-10-17T10:26:04.054Z,99488.44
2022-10-17T10:28:36.041Z,99483.75
2022-10-17T10:31:08.739Z,99476.22
2022-10-17T10:33:41.855Z,99479.22
2022-10-17T10:36:09.708Z,99481.72
2022-10-17T10:38:40.481Z,99486.19
2022-10-17T10:41:10.267Z,99478.41
2022-10-17T10:43:47.148Z,99473.91
2022-10-17T10:46:24.307Z,99486.94
2022-10-17T10:49:00.251Z,99483.47
2022-10-17T10:51:41.280Z,99474.63
2022-10-17T10:54:28.067Z,99485.34
2022-10-17T10:56:59.652Z,99485.81
2022-10-17T10:59:45.572Z,99494.78
2022-10-17T11:02:43.041Z,99484.44
2022-10-17T11:05:48.431Z,99477.09
2022-10-17T11:08:33.556Z,99482.94
2022-10-17T11:11:19.416Z,99479.19
2022-10-17T11:14:15.796Z,99479.81
2022-10-17T11:16:53.796Z,99478.13
2022-10-17T11:20:11.444Z,99485.81
2022-10-17T11:22:51.328Z,99479.25
2022-10-17T11:25:40.506Z,99476.38
2022-10-17T11:28:17.528Z,99475.47
2022-10-17T11:31:04.525Z,99474.91
2022-10-17T11:34:00.324Z,99479.59
2022-10-17T11:36:32.417Z,99478.50
2022-10-17T11:39:06.209Z,99472.16
2022-10-17T11:41:52.604Z,99476.13
2022-10-17T11:44:40.830Z,99472.47
2022-10-17T11:47:46.035Z,99485.56
2022-10-17T11:53:28.659Z,99498.91
2022-10-17T11:55:58.854Z,99495.94
2022-10-17T11:58:37.546Z,99484.06
2022-10-17T12:01:32.174Z,99500.25
2022-10-17T12:04:25.347Z,99501.25
2022-10-17T12:07:05.074Z,99495.03
2022-10-17T12:09:57.690Z,99490.63
2022-10-17T12:12:28.664Z,99491.47
2022-10-17T12:15:24.345Z,99484.09
2022-10-17T12:18:02.892Z,99480.97
2022-10-17T12:20:34.304Z,99490.44
2022-10-17T12:23:26.775Z,99485.84
2022-10-17T12:26:01.170Z,99486.06
2022-10-17T12:28:31.968Z,99488.19
2022-10-17T12:31:09.862Z,99481.97
2022-10-17T12:33:54.162Z,99486.34
2022-10-17T12:36:26.616Z,99503.66
2022-10-17T12:39:02.180Z,99504.97
2022-10-17T12:41:40.773Z,99511.13
2022-10-17T12:44:13.396Z,99498.78
2022-10-17T12:47:28.715Z,99518.97
2022-10-17T12:49:56.711Z,99511.66
2022-10-17T12:52:32.222Z,99511.88
2022-10-17T12:55:14.070Z,99506.38
2022-10-17T12:58:02.241Z,99510.31
2022-10-17T13:01:11.742Z,99511.47
2022-10-17T13:03:44.976Z,99514.84
2022-10-17T13:06:29.542Z,99519.00
2022-10-17T13:09:05.659Z,99519.56
2022-10-17T13:11:35.397Z,99507.69
2022-10-17T13:14:11.049Z,99496.53
2022-10-17T13:16:51.158Z,99503.16
2022-10-17T13:19:23.336Z,99500.66
2022-10-17T13:22:23.167Z,99506.19
2022-10-17T13:24:53.180Z,99503.28
2022-10-17T13:27:26.125Z,99507.22
2022-10-17T13:29:53.549Z,99504.50
2022-10-17T13:32:20.164Z,99511.03
2022-10-17T13:34:46.753Z,99514.91
2022-10-17T13:37:15.591Z,99523.19
2022-10-17T13:39:55.565Z,99512.69
2022-10-17T13:42:31.318Z,99530.88
2022-10-17T13:44:59.260Z,99526.09
2022-10-17T13:47:29.910Z,99526.66
2022-10-17T13:49:58.327Z,99529.50
2022-10-17T13:52:29.640Z,99524.28
2022-10-17T13:55:17.464Z,99533.13
2022-10-17T13:57:44.351Z,99526.19
2022-10-17T14:00:22.778Z,99535.50
2022-10-17T14:02:52.657Z,99529.56
2022-10-17T14:05:23.211Z,99528.69
2022-10-17T14:08:10.510Z,99530.50
2022-10-17T14:10:40.759Z,99524.34
2022-10-17T14:13:19.289Z,99523.53
2022-10-17T14:15:46.704Z,99533.75
2022-10-17T14:18:36.660Z,99539.00
2022-10-17T14:24:21.511Z,99539.34
2022-10-17T14:26:59.318Z,99533.19
2022-10-17T14:29:32.659Z,99536.09
2022-10-17T14:32:08.368Z,99537.88
2022-10-17T14:34:39.265Z,99547.66
2022-10-17T14:37:11.696Z,99544.19
2022-10-17T14:39:39.000Z,99549.97
2022-10-17T14:42:05.709Z,99550.31
2022-10-17T14:44:34.966Z,99560.94
2022-10-17T14:47:30.166Z,99557.88
2022-10-17T14:50:07.097Z,99555.16
2022-10-17T14:52:35.175Z,99554.22
2022-10-17T14:55:27.183Z,99565.88
2022-10-17T14:57:54.053Z,99564.50
2022-10-17T15:00:22.599Z,99561.13
2022-10-17T15:02:51.722Z,99565.91
2022-10-17T15:05:20.241Z,99575.94
2022-10-17T15:07:47.011Z,99569.78
2022-10-17T15:10:34.095Z,99574.72
2022-10-17T15:13:28.292Z,99579.44
2022-10-17T15:15:51.745Z,99583.72
2022-10-17T15:18:18.354Z,99583.41
2022-10-17T15:20:44.960Z,99583.78
2022-10-17T15:23:11.588Z,99592.78
2022-10-17T15:25:39.520Z,99592.59
2022-10-17T15:28:06.098Z,99597.94
2022-10-17T15:30:36.321Z,99591.09
2022-10-17T15:33:03.294Z,99596.94
2022-10-17T15:35:30.158Z,99596.47
2022-10-17T15:37:57.117Z,99596.81
2022-10-17T15:40:28.726Z,99602.28
2022-10-17T15:42:56.591Z,99603.03
2022-10-17T15:45:23.659Z,99590.69
2022-10-17T15:47:59.091Z,99592.34
2022-10-17T15:50:25.691Z,99596.94
2022-10-17T15:52:52.486Z,99602.19
2022-10-17T15:55:20.086Z,99602.75
2022-10-17T15:57:48.166Z,99597.66
2022-10-17T16:00:23.871Z,99601.06
2022-10-17T16:02:51.138Z,99598.16
2022-10-17T16:05:26.180Z,99606.25
2022-10-17T16:07:53.889Z,99612.22
2022-10-17T16:10:22.148Z,99618.91
2022-10-17T16:12:50.083Z,99612.91
2022-10-17T16:15:26.460Z,99618.00
2022-10-17T16:17:55.633Z,99611.06
2022-10-17T16:20:24.432Z,99612.03
2022-10-17T16:22:59.651Z,99616.22
2022-10-17T16:25:28.995Z,99623.63
2022-10-17T16:27:59.961Z,99627.25
2022-10-17T16:30:29.799Z,99633.22
2022-10-17T16:32:57.004Z,99624.69
2022-10-17T16:35:33.202Z,99629.88
2022-10-17T16:38:04.315Z,99631.97
2022-10-17T16:40:30.905Z,99635.69
2022-10-17T16:42:57.516Z,99647.06
2022-10-17T16:45:24.318Z,99648.31
2022-10-17T16:47:50.965Z,99647.34
2022-10-17T16:50:18.394Z,99652.56
2022-10-17T16:52:44.981Z,99653.34
2022-10-17T16:55:11.650Z,99652.28
2022-10-17T17:00:12.646Z,99650.31
2022-10-17T17:02:39.373Z,99664.56
2022-10-17T17:05:06.861Z,99665.16
2022-10-17T17:07:33.909Z,99663.06
2022-10-17T17:10:00.521Z,99680.00
2022-10-17T17:12:27.134Z,99678.53
2022-10-17T17:14:53.702Z,99682.25
2022-10-17T17:17:37.218Z,99675.22
2022-10-17T17:20:07.328Z,99685.13
2022-10-17T17:22:34.238Z,99676.53
2022-10-17T17:25:00.820Z,99671.25
2022-10-17T17:27:28.853Z,99678.16
2022-10-17T17:29:55.724Z,99680.97
2022-10-17T17:32:22.370Z,99672.19
2022-10-17T17:34:48.948Z,99682.06
2022-10-17T17:37:15.600Z,99689.53
2022-10-17T17:39:42.917Z,99692.72
2022-10-17T17:42:09.537Z,99690.94
2022-10-17T17:44:37.143Z,99692.94
2022-10-17T17:47:03.736Z,99690.31
2022-10-17T17:49:30.418Z,99692.84
2022-10-17T17:51:57.139Z,99694.88
2022-10-17T17:54:23.790Z,99693.50
2022-10-17T17:56:50.469Z,99700.00
2022-10-17T17:59:17.103Z,99704.09
2022-10-17T18:01:43.917Z,99698.78
2022-10-17T18:04:11.742Z,99708.53
2022-10-17T18:06:40.171Z,99695.66
2022-10-17T18:09:08.894Z,99707.13
2022-10-17T18:11:36.706Z,99709.88
2022-10-17T18:14:07.654Z,99715.97
2022-10-17T18:16:37.461Z,99710.38
2022-10-17T18:19:07.235Z,99719.94
2022-10-17T18:21:35.801Z,99724.44
2022-10-17T18:24:04.681Z,99722.94
2022-10-17T18:26:31.907Z,99723.59
2022-10-17T18:28:58.545Z,99726.50
2022-10-17T18:31:28.473Z,99728.09
2022-10-17T18:33:57.874Z,99732.44
2022-10-17T18:36:26.732Z,99733.16
2022-10-17T18:38:54.838Z,99740.00
2022-10-17T18:41:24.375Z,99732.59
2022-10-17T18:43:52.612Z,99735.38
2022-10-17T18:46:32.216Z,99735.03
2022-10-17T18:48:58.844Z,99732.97
2022-10-17T18:51:26.532Z,99737.53
2022-10-17T18:53:55.959Z,99735.75
2022-10-17T18:56:23.032Z,99737.28
2022-10-17T18:58:49.643Z,99735.19
2022-10-17T19:01:20.378Z,99729.59
2022-10-17T19:03:49.310Z,99741.78
2022-10-17T19:06:20.302Z,99734.66
2022-10-17T19:08:47.867Z,99729.44
2022-10-17T19:11:24.405Z,99739.06
2022-10-17T19:13:52.279Z,99732.13
2022-10-17T19:16:45.951Z,99731.25
2022-10-17T19:19:20.616Z,99722.38
2022-10-17T19:21:47.899Z,99729.72
2022-10-17T19:24:21.808Z,99726.59
2022-10-17T19:26:50.663Z,99734.72
2022-10-17T19:29:18.158Z,99720.56
2022-10-17T19:31:46.223Z,99718.78
2022-10-17T19:34:14.354Z,99715.47
2022-10-17T19:36:41.479Z,99714.69
2022-10-17T19:39:15.347Z,99713.19
2022-10-17T19:41:45.898Z,99719.16
2022-10-17T19:44:13.272Z,99717.84
2022-10-17T19:46:40.440Z,99722.06
2022-10-17T19:49:07.692Z,99720.88
2022-10-17T19:51:34.547Z,99722.22
2022-10-17T19:54:01.737Z,99718.28
2022-10-17T19:56:31.687Z,99723.22
2022-10-17T19:58:59.038Z,99721.44
2022-10-17T20:01:31.499Z,99720.09
2022-10-17T20:03:58.184Z,99710.63
2022-10-17T20:06:25.339Z,99703.56
2022-10-17T20:08:52.355Z,99703.13
2022-10-17T20:11:22.687Z,99706.13
2022-10-17T20:13:53.023Z,99696.63
2022-10-17T20:16:24.943Z,99706.44
2022-10-17T20:18:54.663Z,99711.69
2022-10-17T20:21:27.861Z,99714.69
2022-10-17T20:23:54.944Z,99717.84
2022-10-17T20:26:36.568Z,99717.94
2022-10-17T20:29:11.322Z,99727.59
2022-10-17T20:31:40.242Z,99720.03
2022-10-17T20:34:13.552Z,99732.97
2022-10-17T20:36:40.812Z,99738.72
2022-10-17T20:39:10.048Z,99737.72
2022-10-17T20:41:36.632Z,99742.03
2022-10-17T20:44:03.961Z,99734.22
2022-10-17T20:46:44.348Z,99729.06
2022-10-17T20:49:18.372Z,99733.91
2022-10-17T20:51:45.583Z,99734.78
2022-10-17T20:54:12.672Z,99734.06
2022-10-17T20:56:39.732Z,99734.78
2022-10-17T20:59:12.179Z,99731.44
2022-10-17T21:01:38.914Z,99732.66
2022-10-17T21:04:33.460Z,99734.44
2022-10-17T21:06:53.258Z,99735.66
2022-10-17T21:09:20.462Z,99735.41
2022-10-17T21:11:48.217Z,99743.56
2022-10-17T21:14:16.564Z,99738.72
2022-10-17T21:16:43.301Z,99741.00
2022-10-17T21:19:11.308Z,99742.31
2022-10-17T21:21:41.379Z,99735.19
2022-10-17T21:24:13.732Z,99743.19
2022-10-17T21:26:42.352Z,99741.38
2022-10-17T21:29:12.101Z,99745.34
2022-10-17T21:31:42.321Z,99742.19
2022-10-17T21:34:18.276Z,99734.63
2022-10-17T21:36:45.197Z,99729.69
2022-10-17T21:39:13.918Z,99730.56
2022-10-17T21:41:41.735Z,99727.84
2022-10-17T21:44:14.517Z,99723.63
2022-10-17T21:46:42.010Z,99722.44
2022-10-17T21:49:11.328Z,99726.63
2022-10-17T21:51:38.891Z,99716.25
2022-10-17T21:54:05.977Z,99730.00
2022-10-17T21:56:34.585Z,99725.59
2022-10-17T21:59:01.383Z,99725.16
2022-10-17T22:01:33.713Z,99731.63
2022-10-17T22:04:04.727Z,99722.56
2022-10-17T22:06:42.988Z,99729.94
2022-10-17T22:09:17.695Z,99736.41
2022-10-17T22:11:49.836Z,99735.66
2022-10-17T22:14:19.883Z,99731.56
2022-10-17T22:16:48.039Z,99744.69
2022-10-17T22:19:20.383Z,99740.91
2022-10-17T22:21:47.187Z,99749.03
2022-10-17T22:24:16.057Z,99748.00
2022-10-17T22:26:44.387Z,99740.00
2022-10-17T22:29:12.082Z,99744.97
2022-10-17T22:31:39.515Z,99738.06
2022-10-17T22:34:07.449Z,99735.50
2022-10-17T22:36:35.015Z,99735.94
2022-10-17T22:39:01.903Z,99737.47
2022-10-17T22:41:28.664Z,99741.69
2022-10-17T22:43:55.413Z,99736.41
2022-10-17T22:46:22.124Z,99737.00
2022-10-17T22:48:48.808Z,99736.25
2022-10-17T22:51:15.806Z,99737.47
2022-10-17T22:53:42.603Z,99741.56
2022-10-17T22:56:16.042Z,99737.63
2022-10-17T22:58:43.010Z,99731.91
2022-10-17T23:01:16.832Z,99740.44
2022-10-17T23:03:43.775Z,99729.94
2022-10-17T23:06:11.039Z,99722.44
2022-10-17T23:08:38.060Z,99722.44
2022-10-17T23:11:05.326Z,99727.50
2022-10-17T23:13:31.944Z,99721.53
2022-10-17T23:15:58.595Z,99726.38
2022-10-17T23:18:26.860Z,99717.44
2022-10-17T23:20:54.097Z,99725.91
2022-10-17T23:23:21.449Z,99717.88
2022-10-17T23:25:49.635Z,99717.75
2022-10-17T23:28:17.162Z,99717.69
2022-10-17T23:30:44.169Z,99710.97
2022-10-17T23:33:12.770Z,99718.53
2022-10-17T23:35:39.835Z,99712.94
2022-10-17T23:38:06.464Z,99706.44
2022-10-17T23:40:34.679Z,99709.00
2022-10-17T23:43:01.352Z,99712.94
2022-10-17T23:45:28.002Z,99713.53
2022-10-17T23:47:54.579Z,99716.53
2022-10-17T23:50:21.177Z,99719.53
2022-10-17T23:52:47.851Z,99721.94
2022-10-17T23:55:14.503Z,99719.81
2022-10-17T23:57:42.367Z,99717.75
